Time;durP1;ratioP1;P1;durP2;ratioP2;P2;SDS_P1;SDS_P2;PMS_P1;PMS_P2;Temp;Humidity;BMP_temperature;BMP_pressure;BME280_temperature;BME280_humidity;BME280_pressure;Samples;Min_cycle;Max_cycle;Signal;HPM_P1;HPM_P2
2022/02/19 00:00:35;;;;;;;3.60;1.60;;;;;;;9.07;73.36;96822.90;434595;1263;108482;-43
2022/02/19 00:10:47;;;;;;;4.70;1.60;;;;;;;8.36;76.47;96837.05;434526;1264;97925;-43
2022/02/19 00:20:56;;;;;;;4.60;0.90;;;;;;;8.13;77.19;96813.91;434515;1264;109003;-42
2022/02/19 00:31:03;;;;;;;3.50;1.30;;;;;;;8.19;75.73;96810.09;434605;1263;96683;-41
2022/02/19 00:41:10;;;;;;;3.20;1.70;;;;;;;8.22;74.85;96819.61;434364;1264;110653;-42
2022/02/19 00:51:18;;;;;;;5.20;0.90;;;;;;;8.16;73.20;96845.09;434529;1264;109695;-45
2022/02/19 01:01:25;;;;;;;1.10;0.60;;;;;;;8.21;66.87;96862.64;434605;1264;97935;-43
2022/02/19 01:11:33;;;;;;;4.50;1.10;;;;;;;8.13;62.79;96878.30;433861;1265;111428;-41
2022/02/19 01:21:40;;;;;;;2.30;0.80;;;;;;;7.97;61.22;96900.79;434218;1264;109162;-41
2022/02/19 01:31:47;;;;;;;3.30;1.10;;;;;;;7.82;59.37;96886.87;433900;1264;108852;-41
2022/02/19 01:41:55;;;;;;;4.70;1.20;;;;;;;7.78;57.72;96892.00;434121;1264;97916;-41
2022/02/19 01:52:02;;;;;;;2.70;1.20;;;;;;;7.82;57.52;96927.45;433772;1266;111236;-43
2022/02/19 02:12:17;;;;;;;3.70;1.10;;;;;;;7.75;57.88;96963.59;434978;1254;97092;-43
2022/02/19 02:22:24;;;;;;;1.90;0.90;;;;;;;7.62;56.97;96982.70;434316;1264;97944;-41
2022/02/19 02:32:32;;;;;;;4.60;0.90;;;;;;;7.41;57.33;96992.20;434093;1264;111854;-44
2022/02/19 02:42:39;;;;;;;4.10;1.60;;;;;;;7.28;57.08;97010.67;434256;1265;108829;-44
2022/02/19 02:52:46;;;;;;;1.80;0.90;;;;;;;7.18;57.98;97014.69;433851;1266;108789;-41
2022/02/19 03:02:54;;;;;;;2.90;1.00;;;;;;;7.15;58.61;97029.85;434112;1265;98003;-41
2022/02/19 03:13:01;;;;;;;4.50;0.90;;;;;;;7.15;58.31;97049.98;434265;1264;111577;-43
2022/02/19 03:23:08;;;;;;;2.30;0.70;;;;;;;7.12;58.58;97058.25;434316;1264;108841;-45
2022/02/19 03:33:15;;;;;;;3.50;0.70;;;;;;;7.02;58.67;97064.74;434379;1264;108143;-41
2022/02/19 03:43:23;;;;;;;1.90;0.90;;;;;;;6.94;58.87;97076.01;434286;1264;97388;-40
2022/02/19 03:53:30;;;;;;;3.40;1.30;;;;;;;6.93;58.30;97090.61;434340;1264;111201;-43
2022/02/19 04:03:38;;;;;;;2.70;0.60;;;;;;;6.80;58.39;97107.40;434162;1264;108697;-42
2022/02/19 04:13:45;;;;;;;5.30;1.00;;;;;;;6.64;58.44;97124.36;434250;1264;108728;-41
2022/02/19 04:33:59;;;;;;;3.70;0.90;;;;;;;6.35;58.17;97127.66;434318;1264;111221;-41
2022/02/19 04:44:07;;;;;;;4.60;1.10;;;;;;;6.26;57.80;97127.04;434161;1263;108904;-42
2022/02/19 04:54:14;;;;;;;2.30;1.00;;;;;;;6.17;57.73;97132.52;434407;1264;108567;-41
2022/02/19 05:04:22;;;;;;;2.10;0.90;;;;;;;6.01;57.61;97144.27;434233;1264;97929;-43
2022/02/19 05:14:30;;;;;;;5.10;1.20;;;;;;;5.94;57.35;97154.79;434303;1264;111030;-40
2022/02/19 05:24:37;;;;;;;4.70;1.00;;;;;;;5.82;56.63;97169.34;434417;1264;107977;-43
2022/02/19 05:34:44;;;;;;;8.20;1.40;;;;;;;5.80;55.67;97183.89;434210;1263;108889;-40
2022/02/19 05:44:52;;;;;;;5.40;1.70;;;;;;;5.67;55.39;97193.70;434264;1264;97897;-42
2022/02/19 05:54:59;;;;;;;6.60;2.00;;;;;;;5.64;54.05;97202.73;434254;1263;111617;-41
2022/02/19 06:05:08;;;;;;;10.20;1.60;;;;;;;5.58;54.26;97209.48;434362;1264;108914;-41
2022/02/19 06:15:14;;;;;;;7.60;1.90;;;;;;;5.64;53.82;97228.48;434073;1264;107725;-40
2022/02/19 06:25:21;;;;;;;5.00;1.30;;;;;;;5.71;53.13;97232.67;434144;1264;97530;-42
2022/02/19 06:35:28;;;;;;;10.60;2.00;;;;;;;5.93;52.95;97244.02;434076;1264;111005;-41
2022/02/19 06:45:35;;;;;;;4.90;1.80;;;;;;;6.32;52.47;97255.15;434213;1263;108915;-41
2022/02/19 06:55:42;;;;;;;5.10;1.40;;;;;;;6.52;51.08;97268.61;434216;1264;107791;-43
2022/02/19 07:15:56;;;;;;;6.10;1.20;;;;;;;6.93;49.32;97300.66;433854;1266;111004;-40
2022/02/19 07:26:06;;;;;;;12.00;4.30;;;;;;;7.29;49.14;97325.84;433827;1266;109080;-43
2022/02/19 07:36:14;;;;;;;8.70;2.50;;;;;;;7.86;47.12;97333.99;433988;1265;108758;-41
2022/02/19 07:46:21;;;;;;;4.30;1.50;;;;;;;8.47;45.78;97374.45;434050;1264;97943;-41
2022/02/19 08:06:53;;;;;;;10.30;1.80;;;;;;;9.11;43.70;97409.23;433955;1264;108789;-41
2022/02/19 08:17:00;;;;;;;15.30;7.20;;;;;;;8.39;44.75;97426.46;434280;1264;108827;-42
2022/02/19 08:27:08;;;;;;;12.70;2.10;;;;;;;7.92;45.37;97437.77;434470;1264;97921;-42
2022/02/19 08:37:15;;;;;;;5.20;2.90;;;;;;;8.10;45.36;97470.05;434371;1263;111158;-40
2022/02/19 08:47:24;;;;;;;10.10;2.70;;;;;;;7.82;44.88;97480.88;434540;1264;108683;-43
2022/02/19 08:57:32;;;;;;;13.50;5.20;;;;;;;7.73;45.51;97500.06;434375;1263;97910;-41
2022/02/19 09:17:46;;;;;;;10.00;2.80;;;;;;;7.22;45.79;97557.61;434418;1264;110989;-41
2022/02/19 09:27:53;;;;;;;9.40;3.50;;;;;;;7.03;45.60;97579.47;434317;1263;109149;-40
2022/02/19 09:38:01;;;;;;;6.00;2.90;;;;;;;6.97;46.43;97609.79;434509;1264;108735;-43
2022/02/19 09:48:12;;;;;;;9.00;1.80;;;;;;;7.04;46.78;97612.03;434637;1262;97897;-43
2022/02/19 09:58:19;;;;;;;7.20;3.30;;;;;;;7.11;46.76;97646.67;434711;1264;97523;-41
2022/02/19 10:08:27;;;;;;;4.10;1.90;;;;;;;7.11;46.89;97665.23;434632;1264;109724;-40
2022/02/19 10:18:36;;;;;;;6.90;2.70;;;;;;;7.09;46.41;97686.05;434566;1264;108891;-42
2022/02/19 10:28:54;;;;;;;7.40;3.30;;;;;;;7.01;46.93;97716.30;434636;1263;108820;-41
2022/02/19 10:39:03;;;;;;;6.60;2.50;;;;;;;6.94;46.96;97738.96;434586;1263;97765;-41
2022/02/19 11:09:25;;;;;;;4.70;1.50;;;;;;;6.86;46.97;97784.89;434425;1264;108853;-41
2022/02/19 11:19:33;;;;;;;6.30;1.40;;;;;;;6.79;46.18;97801.61;434640;1262;97928;-41
2022/02/19 11:29:42;;;;;;;11.90;3.00;;;;;;;6.79;46.25;97809.45;434515;1264;97644;-41
2022/02/19 11:40:08;;;;;;;7.30;2.20;;;;;;;6.84;46.55;97818.23;434512;1264;110074;-45
2022/02/19 11:50:24;;;;;;;3.10;0.80;;;;;;;6.94;45.92;97829.05;434509;1263;108841;-42
2022/02/19 12:00:43;;;;;;;3.80;2.10;;;;;;;7.15;45.67;97826.35;434507;1263;108874;-41
2022/02/19 12:11:08;;;;;;;10.40;5.10;;;;;;;7.28;45.98;97841.70;434159;1264;97907;-44
2022/02/19 12:21:32;;;;;;;7.30;2.80;;;;;;;7.22;46.63;97858.19;434104;1264;98064;-40
2022/02/19 12:31:39;;;;;;;2.50;2.10;;;;;;;7.07;46.32;97878.09;434516;1264;111077;-41
2022/02/19 12:41:48;;;;;;;6.30;2.20;;;;;;;6.90;46.63;97882.34;434605;1262;108918;-44
2022/02/19 12:51:58;;;;;;;5.90;3.50;;;;;;;6.78;47.53;97897.09;434699;1263;108863;-41
2022/02/19 13:02:03;;;;;;;4.10;2.50;;;;;;;6.78;47.65;97908.54;434393;1264;97929;-41
2022/02/19 13:12:11;;;;;;;8.40;2.70;;;;;;;6.65;47.37;97936.57;434594;1264;97867;-41
2022/02/19 13:22:24;;;;;;;15.20;7.00;;;;;;;6.68;47.09;97941.86;434763;1264;110063;-43
2022/02/19 13:32:30;;;;;;;6.20;2.40;;;;;;;6.68;47.00;97945.75;434824;1263;107842;-41
2022/02/19 13:42:39;;;;;;;15.60;5.50;;;;;;;6.66;47.04;97963.45;434743;1263;108908;-43
2022/02/19 13:52:46;;;;;;;23.50;9.90;;;;;;;6.63;47.32;97972.11;434870;1264;97904;-42
2022/02/19 14:03:01;;;;;;;9.20;4.20;;;;;;;6.60;47.52;97991.73;434652;1264;98081;-41
2022/02/19 14:13:12;;;;;;;11.50;4.50;;;;;;;6.54;47.33;98012.02;434670;1264;110935;-43
2022/02/19 14:23:17;;;;;;;9.00;3.70;;;;;;;6.41;47.39;98032.15;434474;1264;108849;-41
2022/02/19 14:33:25;;;;;;;11.30;4.50;;;;;;;6.35;47.47;98039.46;434438;1264;107476;-39
2022/02/19 14:43:32;;;;;;;12.60;2.20;;;;;;;6.31;47.27;98052.96;434741;1264;98055;-41
2022/02/19 14:53:39;;;;;;;2.70;1.50;;;;;;;6.24;47.01;98064.98;434498;1264;98157;-44
2022/02/19 15:03:46;;;;;;;16.50;2.70;;;;;;;6.16;46.93;98066.63;434540;1264;110402;-41
2022/02/19 15:13:53;;;;;;;5.00;1.60;;;;;;;6.09;47.03;98076.23;434504;1264;108813;-44
2022/02/19 15:24:00;;;;;;;8.40;3.30;;;;;;;6.04;46.52;98098.54;434066;1265;108719;-40
2022/02/19 15:34:08;;;;;;;11.40;3.50;;;;;;;5.97;46.73;98106.19;434190;1265;98085;-41
2022/02/19 15:44:15;;;;;;;11.70;4.80;;;;;;;5.87;47.36;98117.12;434411;1264;97767;-40
2022/02/19 15:54:23;;;;;;;4.10;2.20;;;;;;;5.78;47.22;98134.02;434340;1264;111276;-40
2022/02/19 16:04:29;;;;;;;11.50;4.80;;;;;;;5.70;46.72;98146.65;434484;1264;108819;-43
2022/02/19 16:14:37;;;;;;;13.50;6.40;;;;;;;5.68;46.69;98170.30;434635;1264;109160;-42
2022/02/19 16:24:42;;;;;;;10.20;4.70;;;;;;;5.63;47.10;98193.27;434336;1264;97785;-42
2022/02/19 16:34:50;;;;;;;24.30;4.70;;;;;;;5.57;47.11;98218.92;434431;1264;111031;-41
2022/02/19 16:44:56;;;;;;;8.60;3.80;;;;;;;5.54;46.82;98240.41;434333;1264;108173;-41
2022/02/19 16:55:03;;;;;;;13.10;6.30;;;;;;;5.51;46.88;98266.85;434334;1264;107840;-41
2022/02/19 17:05:07;;;;;;;9.40;5.90;;;;;;;5.44;47.20;98286.70;434530;1264;97985;-43
2022/02/19 17:25:22;;;;;;;9.90;4.60;;;;;;;5.29;47.69;98314.45;434197;1265;110885;-41
2022/02/19 17:35:28;;;;;;;7.90;3.10;;;;;;;5.09;48.10;98330.20;434217;1264;108787;-41
2022/02/19 17:45:35;;;;;;;7.50;3.40;;;;;;;4.82;48.36;98340.51;434201;1264;108804;-41
2022/02/19 17:55:42;;;;;;;6.20;2.80;;;;;;;4.61;48.78;98364.44;434217;1264;97987;-42
2022/02/19 18:05:49;;;;;;;14.70;7.70;;;;;;;4.52;49.19;98375.80;433652;1264;97655;-41
2022/02/19 18:15:57;;;;;;;12.60;5.20;;;;;;;4.47;49.58;98386.51;434507;1264;111667;-41
2022/02/19 18:26:05;;;;;;;29.40;11.20;;;;;;;4.40;49.40;98391.27;434457;1264;109231;-41
2022/02/19 18:36:12;;;;;;;18.60;6.60;;;;;;;4.28;49.63;98397.44;434386;1264;108851;-41
2022/02/19 18:46:19;;;;;;;14.00;6.70;;;;;;;4.13;49.78;98412.10;434246;1263;97059;-44
2022/02/19 18:56:27;;;;;;;25.20;6.20;;;;;;;4.00;50.17;98410.98;434239;1263;111030;-40
2022/02/19 19:06:34;;;;;;;11.00;3.40;;;;;;;3.91;50.40;98406.63;430034;1265;5565714;-42
2022/02/19 19:16:41;;;;;;;15.50;5.90;;;;;;;3.76;50.64;98415.31;434275;1264;97912;-40
2022/02/19 19:26:49;;;;;;;6.30;3.20;;;;;;;3.60;50.85;98428.31;434372;1263;97495;-43
2022/02/19 19:36:56;;;;;;;10.70;4.50;;;;;;;3.52;51.02;98436.77;434264;1263;110867;-41
2022/02/19 19:47:03;;;;;;;16.50;4.80;;;;;;;3.50;51.30;98443.34;434423;1265;108815;-43
2022/02/19 19:57:10;;;;;;;19.00;7.50;;;;;;;3.42;51.33;98444.20;434157;1264;98009;-41
2022/02/19 20:07:18;;;;;;;16.70;6.00;;;;;;;3.34;51.48;98441.33;434153;1263;97902;-40
2022/02/19 20:17:25;;;;;;;16.70;6.50;;;;;;;3.26;51.48;98433.09;434381;1265;110173;-41
2022/02/19 20:27:32;;;;;;;23.50;9.70;;;;;;;3.18;51.51;98429.04;433898;1264;109210;-43
2022/02/19 20:37:38;;;;;;;18.80;6.20;;;;;;;3.10;51.57;98436.05;434307;1264;98003;-40
2022/02/19 20:47:45;;;;;;;17.00;5.70;;;;;;;2.97;51.64;98444.74;434234;1264;97936;-41
2022/02/19 20:57:53;;;;;;;14.00;5.40;;;;;;;2.84;51.83;98452.52;434214;1264;111076;-42
2022/02/19 21:08:02;;;;;;;12.70;4.70;;;;;;;2.67;52.09;98451.86;434329;1264;108358;-41
2022/02/19 21:18:09;;;;;;;10.50;4.40;;;;;;;2.56;52.22;98450.44;434315;1263;108835;-41
2022/02/19 21:28:16;;;;;;;12.00;4.20;;;;;;;2.47;52.67;98457.80;434431;1264;97878;-40
2022/02/19 21:38:23;;;;;;;12.70;4.50;;;;;;;2.35;52.85;98454.64;434399;1263;111133;-42
2022/02/19 21:48:31;;;;;;;13.50;5.70;;;;;;;2.27;53.14;98451.40;434444;1264;108782;-41
2022/02/19 21:58:38;;;;;;;47.80;17.00;;;;;;;2.09;53.18;98445.42;434254;1264;108916;-41
2022/02/19 22:08:45;;;;;;;47.80;16.20;;;;;;;1.73;53.19;98451.71;434398;1264;97909;-41
2022/02/19 22:18:52;;;;;;;40.60;17.00;;;;;;;1.60;53.86;98450.59;434340;1263;110711;-41
2022/02/19 22:29:00;;;;;;;73.10;27.40;;;;;;;1.42;54.03;98453.71;434247;1264;108905;-43
2022/02/19 22:39:07;;;;;;;57.50;18.80;;;;;;;1.39;54.44;98444.80;434313;1264;108670;-41
2022/02/19 22:49:13;;;;;;;41.20;16.70;;;;;;;1.36;54.80;98440.66;434262;1263;97925;-42
2022/02/19 22:59:20;;;;;;;40.90;15.70;;;;;;;1.19;54.88;98428.60;434242;1264;109003;-41
2022/02/19 23:09:28;;;;;;;42.50;15.20;;;;;;;1.10;55.18;98418.52;434255;1264;106923;-41
2022/02/19 23:19:35;;;;;;;48.80;20.00;;;;;;;1.07;55.31;98416.88;434356;1263;108494;-43
2022/02/19 23:29:42;;;;;;;73.10;24.40;;;;;;;0.96;55.45;98411.10;434230;1263;97795;-39
2022/02/19 23:39:49;;;;;;;57.80;20.90;;;;;;;0.79;55.76;98402.23;434249;1263;111136;-41
2022/02/19 23:49:58;;;;;;;59.50;22.90;;;;;;;0.68;56.14;98398.52;434116;1264;108867;-40
